sensor_id;sensor_type;location;lat;lon;timestamp;temperature;humidity
25436;DHT22;13363;52.772;-3.890;2022-09-09T00:06:59;15.30;99.90
25436;DHT22;13363;52.772;-3.890;2022-09-09T00:09:31;15.20;99.90
25436;DHT22;13363;52.772;-3.890;2022-09-09T00:12:14;15.10;99.90
25436;DHT22;13363;52.772;-3.890;2022-09-09T00:14:48;15.10;99.90
25436;DHT22;13363;52.772;-3.890;2022-09-09T00:17:42;15.00;99.90
25436;DHT22;13363;52.772;-3.890;2022-09-09T00:23:34;15.00;99.90
25436;DHT22;13363;52.772;-3.890;2022-09-09T00:28:28;15.00;99.90
25436;DHT22;13363;52.772;-3.890;2022-09-09T00:31:11;15.00;99.90
25436;DHT22;13363;52.772;-3.890;2022-09-09T00:33:38;15.00;99.90
25436;DHT22;13363;52.772;-3.890;2022-09-09T00:36:13;15.00;99.90
25436;DHT22;13363;52.772;-3.890;2022-09-09T00:38:48;15.00;99.90
25436;DHT22;13363;52.772;-3.890;2022-09-09T00:41:21;15.00;99.90
25436;DHT22;13363;52.772;-3.890;2022-09-09T00:44:00;15.00;99.90
25436;DHT22;13363;52.772;-3.890;2022-09-09T00:49:39;15.00;99.90
25436;DHT22;13363;52.772;-3.890;2022-09-09T00:57:51;14.90;99.90
25436;DHT22;13363;52.772;-3.890;2022-09-09T01:00:26;14.80;99.90
25436;DHT22;13363;52.772;-3.890;2022-09-09T01:06:30;14.70;99.90
25436;DHT22;13363;52.772;-3.890;2022-09-09T01:09:21;14.60;99.90
25436;DHT22;13363;52.772;-3.890;2022-09-09T01:15:12;14.50;99.90
25436;DHT22;13363;52.772;-3.890;2022-09-09T01:28:17;14.20;99.90
25436;DHT22;13363;52.772;-3.890;2022-09-09T01:30:44;14.20;99.90
25436;DHT22;13363;52.772;-3.890;2022-09-09T01:33:15;14.20;99.90
25436;DHT22;13363;52.772;-3.890;2022-09-09T01:38:24;14.20;99.90
25436;DHT22;13363;52.772;-3.890;2022-09-09T01:40:51;14.20;99.90
25436;DHT22;13363;52.772;-3.890;2022-09-09T01:43:21;14.20;99.90
25436;DHT22;13363;52.772;-3.890;2022-09-09T01:45:50;14.10;99.90
25436;DHT22;13363;52.772;-3.890;2022-09-09T01:48:18;14.10;99.90
25436;DHT22;13363;52.772;-3.890;2022-09-09T01:50:44;14.20;99.90
25436;DHT22;13363;52.772;-3.890;2022-09-09T01:53:11;14.20;99.90
25436;DHT22;13363;52.772;-3.890;2022-09-09T01:55:43;14.30;99.90
25436;DHT22;13363;52.772;-3.890;2022-09-09T01:58:31;14.30;99.90
25436;DHT22;13363;52.772;-3.890;2022-09-09T02:01:22;14.30;99.90
25436;DHT22;13363;52.772;-3.890;2022-09-09T02:03:56;14.40;99.90
25436;DHT22;13363;52.772;-3.890;2022-09-09T02:06:34;14.40;99.90
25436;DHT22;13363;52.772;-3.890;2022-09-09T02:09:03;14.40;99.90
25436;DHT22;13363;52.772;-3.890;2022-09-09T02:11:30;14.40;99.90
25436;DHT22;13363;52.772;-3.890;2022-09-09T02:14:07;14.40;99.90
25436;DHT22;13363;52.772;-3.890;2022-09-09T02:16:55;14.30;99.90
25436;DHT22;13363;52.772;-3.890;2022-09-09T02:19:49;14.30;99.90
25436;DHT22;13363;52.772;-3.890;2022-09-09T02:22:21;14.30;99.90
25436;DHT22;13363;52.772;-3.890;2022-09-09T02:24:49;14.30;99.90
25436;DHT22;13363;52.772;-3.890;2022-09-09T02:27:18;14.20;99.90
25436;DHT22;13363;52.772;-3.890;2022-09-09T02:29:45;14.20;99.90
25436;DHT22;13363;52.772;-3.890;2022-09-09T02:32:15;14.20;99.90
25436;DHT22;13363;52.772;-3.890;2022-09-09T02:34:49;14.20;99.90
25436;DHT22;13363;52.772;-3.890;2022-09-09T02:37:18;14.10;99.90
25436;DHT22;13363;52.772;-3.890;2022-09-09T02:39:46;14.10;99.90
25436;DHT22;13363;52.772;-3.890;2022-09-09T02:42:12;14.00;99.90
25436;DHT22;13363;52.772;-3.890;2022-09-09T02:44:40;14.10;99.90
25436;DHT22;13363;52.772;-3.890;2022-09-09T02:55:24;14.00;99.90
25436;DHT22;13363;52.772;-3.890;2022-09-09T02:57:51;14.00;99.90
25436;DHT22;13363;52.772;-3.890;2022-09-09T03:00:25;14.00;99.90
25436;DHT22;13363;52.772;-3.890;2022-09-09T03:02:53;14.00;99.90
25436;DHT22;13363;52.772;-3.890;2022-09-09T03:05:20;14.10;99.90
25436;DHT22;13363;52.772;-3.890;2022-09-09T03:07:46;14.10;99.90
25436;DHT22;13363;52.772;-3.890;2022-09-09T03:10:12;14.20;99.90
25436;DHT22;13363;52.772;-3.890;2022-09-09T03:12:38;14.20;99.90
25436;DHT22;13363;52.772;-3.890;2022-09-09T03:15:05;14.20;99.90
25436;DHT22;13363;52.772;-3.890;2022-09-09T03:17:31;14.20;99.90
25436;DHT22;13363;52.772;-3.890;2022-09-09T03:19:57;14.30;99.90
25436;DHT22;13363;52.772;-3.890;2022-09-09T03:22:24;14.30;99.90
25436;DHT22;13363;52.772;-3.890;2022-09-09T03:24:53;14.30;99.90
25436;DHT22;13363;52.772;-3.890;2022-09-09T03:27:19;14.40;99.90
25436;DHT22;13363;52.772;-3.890;2022-09-09T03:29:46;14.40;99.90
25436;DHT22;13363;52.772;-3.890;2022-09-09T03:32:12;14.40;99.90
25436;DHT22;13363;52.772;-3.890;2022-09-09T03:34:38;14.40;99.90
25436;DHT22;13363;52.772;-3.890;2022-09-09T03:37:07;14.50;99.90
25436;DHT22;13363;52.772;-3.890;2022-09-09T03:39:33;14.50;99.90
25436;DHT22;13363;52.772;-3.890;2022-09-09T03:41:59;14.50;99.90
25436;DHT22;13363;52.772;-3.890;2022-09-09T03:44:25;14.50;99.90
25436;DHT22;13363;52.772;-3.890;2022-09-09T03:46:51;14.50;99.90
25436;DHT22;13363;52.772;-3.890;2022-09-09T03:49:17;14.50;99.90
25436;DHT22;13363;52.772;-3.890;2022-09-09T03:51:42;14.50;99.90
25436;DHT22;13363;52.772;-3.890;2022-09-09T03:54:08;14.50;99.90
25436;DHT22;13363;52.772;-3.890;2022-09-09T03:56:36;14.50;99.90
25436;DHT22;13363;52.772;-3.890;2022-09-09T03:59:02;14.40;99.90
25436;DHT22;13363;52.772;-3.890;2022-09-09T04:01:29;14.50;99.90
25436;DHT22;13363;52.772;-3.890;2022-09-09T04:03:55;14.40;99.90
25436;DHT22;13363;52.772;-3.890;2022-09-09T04:06:24;14.40;99.90
25436;DHT22;13363;52.772;-3.890;2022-09-09T04:08:50;14.40;99.90
25436;DHT22;13363;52.772;-3.890;2022-09-09T04:11:17;14.30;99.90
25436;DHT22;13363;52.772;-3.890;2022-09-09T04:13:43;14.20;99.90
25436;DHT22;13363;52.772;-3.890;2022-09-09T04:16:11;14.20;99.90
25436;DHT22;13363;52.772;-3.890;2022-09-09T04:18:38;14.10;99.90
25436;DHT22;13363;52.772;-3.890;2022-09-09T04:21:04;14.20;99.90
25436;DHT22;13363;52.772;-3.890;2022-09-09T04:23:32;14.30;99.90
25436;DHT22;13363;52.772;-3.890;2022-09-09T04:26:00;14.30;99.90
25436;DHT22;13363;52.772;-3.890;2022-09-09T04:28:29;14.20;99.90
25436;DHT22;13363;52.772;-3.890;2022-09-09T04:30:56;14.20;99.90
25436;DHT22;13363;52.772;-3.890;2022-09-09T04:33:25;14.30;99.90
25436;DHT22;13363;52.772;-3.890;2022-09-09T04:35:52;14.20;99.90
25436;DHT22;13363;52.772;-3.890;2022-09-09T04:38:20;14.10;99.90
25436;DHT22;13363;52.772;-3.890;2022-09-09T04:40:48;14.10;99.90
25436;DHT22;13363;52.772;-3.890;2022-09-09T04:43:15;14.10;99.90
25436;DHT22;13363;52.772;-3.890;2022-09-09T04:45:41;14.10;99.90
25436;DHT22;13363;52.772;-3.890;2022-09-09T04:48:08;14.10;99.90
25436;DHT22;13363;52.772;-3.890;2022-09-09T04:50:35;14.10;99.90
25436;DHT22;13363;52.772;-3.890;2022-09-09T04:53:05;14.10;99.90
25436;DHT22;13363;52.772;-3.890;2022-09-09T04:55:31;14.10;99.90
25436;DHT22;13363;52.772;-3.890;2022-09-09T04:57:57;14.10;99.90
25436;DHT22;13363;52.772;-3.890;2022-09-09T05:00:26;14.10;99.90
25436;DHT22;13363;52.772;-3.890;2022-09-09T05:02:52;14.10;99.90
25436;DHT22;13363;52.772;-3.890;2022-09-09T05:05:18;14.10;99.90
25436;DHT22;13363;52.772;-3.890;2022-09-09T05:07:44;14.10;99.90
25436;DHT22;13363;52.772;-3.890;2022-09-09T05:10:10;14.00;99.90
25436;DHT22;13363;52.772;-3.890;2022-09-09T05:12:36;14.10;99.90
25436;DHT22;13363;52.772;-3.890;2022-09-09T05:15:02;14.10;99.90
25436;DHT22;13363;52.772;-3.890;2022-09-09T05:17:27;14.10;99.90
25436;DHT22;13363;52.772;-3.890;2022-09-09T05:19:54;14.10;99.90
25436;DHT22;13363;52.772;-3.890;2022-09-09T05:22:20;14.10;99.90
25436;DHT22;13363;52.772;-3.890;2022-09-09T05:24:47;14.10;99.90
25436;DHT22;13363;52.772;-3.890;2022-09-09T05:27:17;14.20;99.90
25436;DHT22;13363;52.772;-3.890;2022-09-09T05:29:45;14.20;99.90
25436;DHT22;13363;52.772;-3.890;2022-09-09T05:32:11;14.10;99.90
25436;DHT22;13363;52.772;-3.890;2022-09-09T05:34:37;14.00;99.90
25436;DHT22;13363;52.772;-3.890;2022-09-09T05:37:03;14.00;99.90
25436;DHT22;13363;52.772;-3.890;2022-09-09T05:39:30;14.10;99.90
25436;DHT22;13363;52.772;-3.890;2022-09-09T05:41:55;14.10;99.90
25436;DHT22;13363;52.772;-3.890;2022-09-09T05:44:21;14.10;99.90
25436;DHT22;13363;52.772;-3.890;2022-09-09T05:46:49;14.10;99.90
25436;DHT22;13363;52.772;-3.890;2022-09-09T05:49:15;14.20;99.90
25436;DHT22;13363;52.772;-3.890;2022-09-09T05:51:41;14.20;99.90
25436;DHT22;13363;52.772;-3.890;2022-09-09T05:54:08;14.30;99.90
25436;DHT22;13363;52.772;-3.890;2022-09-09T05:56:34;14.30;99.90
25436;DHT22;13363;52.772;-3.890;2022-09-09T05:59:00;14.30;99.90
25436;DHT22;13363;52.772;-3.890;2022-09-09T06:01:29;14.20;99.90
25436;DHT22;13363;52.772;-3.890;2022-09-09T06:03:56;14.10;99.90
25436;DHT22;13363;52.772;-3.890;2022-09-09T06:06:26;14.10;99.90
25436;DHT22;13363;52.772;-3.890;2022-09-09T06:08:54;14.10;99.90
25436;DHT22;13363;52.772;-3.890;2022-09-09T06:11:21;14.10;99.90
25436;DHT22;13363;52.772;-3.890;2022-09-09T06:13:48;14.20;99.90
25436;DHT22;13363;52.772;-3.890;2022-09-09T06:16:18;14.20;99.90
25436;DHT22;13363;52.772;-3.890;2022-09-09T06:18:44;14.20;99.90
25436;DHT22;13363;52.772;-3.890;2022-09-09T06:21:17;14.20;99.90
25436;DHT22;13363;52.772;-3.890;2022-09-09T06:23:44;14.30;99.90
25436;DHT22;13363;52.772;-3.890;2022-09-09T06:26:13;14.30;99.90
25436;DHT22;13363;52.772;-3.890;2022-09-09T06:28:41;14.30;99.90
25436;DHT22;13363;52.772;-3.890;2022-09-09T06:31:11;14.40;99.90
25436;DHT22;13363;52.772;-3.890;2022-09-09T06:33:39;14.40;99.90
25436;DHT22;13363;52.772;-3.890;2022-09-09T06:36:14;14.30;99.90
25436;DHT22;13363;52.772;-3.890;2022-09-09T06:38:41;14.40;99.90
25436;DHT22;13363;52.772;-3.890;2022-09-09T06:41:09;14.30;99.90
25436;DHT22;13363;52.772;-3.890;2022-09-09T06:43:35;14.40;99.90
25436;DHT22;13363;52.772;-3.890;2022-09-09T06:46:13;14.40;99.90
25436;DHT22;13363;52.772;-3.890;2022-09-09T06:48:41;14.50;99.90
25436;DHT22;13363;52.772;-3.890;2022-09-09T06:51:10;14.60;99.90
25436;DHT22;13363;52.772;-3.890;2022-09-09T06:53:40;14.60;99.90
25436;DHT22;13363;52.772;-3.890;2022-09-09T06:58:39;14.70;99.90
25436;DHT22;13363;52.772;-3.890;2022-09-09T07:01:13;14.80;99.90
25436;DHT22;13363;52.772;-3.890;2022-09-09T07:03:40;15.00;99.90
25436;DHT22;13363;52.772;-3.890;2022-09-09T07:06:06;15.00;99.90
25436;DHT22;13363;52.772;-3.890;2022-09-09T07:08:33;15.00;99.90
25436;DHT22;13363;52.772;-3.890;2022-09-09T07:11:04;15.10;99.90
25436;DHT22;13363;52.772;-3.890;2022-09-09T07:13:33;15.10;99.90
25436;DHT22;13363;52.772;-3.890;2022-09-09T07:16:11;15.20;99.90
25436;DHT22;13363;52.772;-3.890;2022-09-09T07:18:37;15.20;99.90
25436;DHT22;13363;52.772;-3.890;2022-09-09T07:21:03;15.20;99.90
25436;DHT22;13363;52.772;-3.890;2022-09-09T07:23:30;15.30;99.90
25436;DHT22;13363;52.772;-3.890;2022-09-09T07:25:57;15.30;99.90
25436;DHT22;13363;52.772;-3.890;2022-09-09T07:28:23;15.40;99.90
25436;DHT22;13363;52.772;-3.890;2022-09-09T07:30:54;15.50;99.90
25436;DHT22;13363;52.772;-3.890;2022-09-09T07:33:20;15.40;99.90
25436;DHT22;13363;52.772;-3.890;2022-09-09T07:35:45;15.50;99.90
25436;DHT22;13363;52.772;-3.890;2022-09-09T07:38:12;15.60;99.90
25436;DHT22;13363;52.772;-3.890;2022-09-09T07:40:37;15.80;99.90
25436;DHT22;13363;52.772;-3.890;2022-09-09T07:43:04;16.00;99.90
25436;DHT22;13363;52.772;-3.890;2022-09-09T07:45:29;16.10;99.90
25436;DHT22;13363;52.772;-3.890;2022-09-09T07:47:58;16.30;99.90
25436;DHT22;13363;52.772;-3.890;2022-09-09T07:50:24;16.60;99.90
25436;DHT22;13363;52.772;-3.890;2022-09-09T07:52:53;16.80;99.90
25436;DHT22;13363;52.772;-3.890;2022-09-09T07:55:20;17.00;99.90
25436;DHT22;13363;52.772;-3.890;2022-09-09T07:57:46;17.40;99.90
25436;DHT22;13363;52.772;-3.890;2022-09-09T08:00:13;18.70;99.90
25436;DHT22;13363;52.772;-3.890;2022-09-09T08:02:40;19.90;99.90
25436;DHT22;13363;52.772;-3.890;2022-09-09T08:05:06;20.50;99.90
25436;DHT22;13363;52.772;-3.890;2022-09-09T08:07:32;21.00;99.90
25436;DHT22;13363;52.772;-3.890;2022-09-09T08:09:58;22.30;99.90
25436;DHT22;13363;52.772;-3.890;2022-09-09T08:12:24;23.10;99.90
25436;DHT22;13363;52.772;-3.890;2022-09-09T08:14:50;24.40;99.90
25436;DHT22;13363;52.772;-3.890;2022-09-09T08:17:17;25.20;99.90
25436;DHT22;13363;52.772;-3.890;2022-09-09T08:19:43;26.30;99.90
25436;DHT22;13363;52.772;-3.890;2022-09-09T08:22:10;26.10;99.90
25436;DHT22;13363;52.772;-3.890;2022-09-09T08:24:36;25.30;99.90
25436;DHT22;13363;52.772;-3.890;2022-09-09T08:27:02;24.40;99.90
25436;DHT22;13363;52.772;-3.890;2022-09-09T08:29:28;24.20;99.90
25436;DHT22;13363;52.772;-3.890;2022-09-09T08:31:56;25.00;99.90
25436;DHT22;13363;52.772;-3.890;2022-09-09T08:34:24;25.90;99.90
25436;DHT22;13363;52.772;-3.890;2022-09-09T08:36:51;26.30;99.90
25436;DHT22;13363;52.772;-3.890;2022-09-09T08:39:19;26.20;99.90
25436;DHT22;13363;52.772;-3.890;2022-09-09T08:47:22;25.10;99.90
25436;DHT22;13363;52.772;-3.890;2022-09-09T08:50:22;24.80;99.90
25436;DHT22;13363;52.772;-3.890;2022-09-09T08:53:19;24.60;99.90
25436;DHT22;13363;52.772;-3.890;2022-09-09T08:55:52;24.20;99.90
25436;DHT22;13363;52.772;-3.890;2022-09-09T08:58:26;24.00;99.90
25436;DHT22;13363;52.772;-3.890;2022-09-09T09:03:50;24.20;99.90
25436;DHT22;13363;52.772;-3.890;2022-09-09T09:09:28;24.30;99.90
25436;DHT22;13363;52.772;-3.890;2022-09-09T09:11:59;24.00;99.90
25436;DHT22;13363;52.772;-3.890;2022-09-09T09:14:31;24.20;99.90
25436;DHT22;13363;52.772;-3.890;2022-09-09T09:17:04;24.70;99.90
25436;DHT22;13363;52.772;-3.890;2022-09-09T09:19:36;25.00;99.90
25436;DHT22;13363;52.772;-3.890;2022-09-09T09:22:17;24.50;99.90
25436;DHT22;13363;52.772;-3.890;2022-09-09T09:24:54;24.80;99.90
25436;DHT22;13363;52.772;-3.890;2022-09-09T09:27:33;24.90;99.90
25436;DHT22;13363;52.772;-3.890;2022-09-09T09:30:05;24.60;99.90
25436;DHT22;13363;52.772;-3.890;2022-09-09T09:32:39;24.50;99.90
25436;DHT22;13363;52.772;-3.890;2022-09-09T09:35:12;24.20;99.90
25436;DHT22;13363;52.772;-3.890;2022-09-09T09:37:40;23.40;99.90
25436;DHT22;13363;52.772;-3.890;2022-09-09T09:40:20;22.80;99.90
25436;DHT22;13363;52.772;-3.890;2022-09-09T09:42:52;23.10;99.90
25436;DHT22;13363;52.772;-3.890;2022-09-09T09:45:42;22.90;99.90
25436;DHT22;13363;52.772;-3.890;2022-09-09T09:48:11;23.00;99.90
25436;DHT22;13363;52.772;-3.890;2022-09-09T09:50:57;23.00;99.90
25436;DHT22;13363;52.772;-3.890;2022-09-09T09:53:32;23.00;99.90
25436;DHT22;13363;52.772;-3.890;2022-09-09T09:58:31;22.50;99.90
25436;DHT22;13363;52.772;-3.890;2022-09-09T10:01:00;22.40;99.90
25436;DHT22;13363;52.772;-3.890;2022-09-09T10:03:35;22.40;99.90
25436;DHT22;13363;52.772;-3.890;2022-09-09T10:06:04;22.20;99.90
25436;DHT22;13363;52.772;-3.890;2022-09-09T10:08:34;22.20;99.90
25436;DHT22;13363;52.772;-3.890;2022-09-09T10:11:21;22.30;99.90
25436;DHT22;13363;52.772;-3.890;2022-09-09T10:14:04;21.90;99.90
25436;DHT22;13363;52.772;-3.890;2022-09-09T10:19:34;22.10;99.90
25436;DHT22;13363;52.772;-3.890;2022-09-09T10:24:58;21.90;99.90
25436;DHT22;13363;52.772;-3.890;2022-09-09T10:30:24;22.60;99.90
25436;DHT22;13363;52.772;-3.890;2022-09-09T10:33:19;22.30;1.00
25436;DHT22;13363;52.772;-3.890;2022-09-09T10:38:46;21.70;99.90
25436;DHT22;13363;52.772;-3.890;2022-09-09T10:46:51;21.90;30.00
25436;DHT22;13363;52.772;-3.890;2022-09-09T10:49:27;21.50;1.00
25436;DHT22;13363;52.772;-3.890;2022-09-09T11:00:03;21.90;1.00
25436;DHT22;13363;52.772;-3.890;2022-09-09T11:02:32;21.90;99.90
25436;DHT22;13363;52.772;-3.890;2022-09-09T11:07:40;21.90;1.00
25436;DHT22;13363;52.772;-3.890;2022-09-09T11:10:40;22.00;1.00
25436;DHT22;13363;52.772;-3.890;2022-09-09T11:13:18;22.00;1.00
25436;DHT22;13363;52.772;-3.890;2022-09-09T11:16:00;22.00;1.00
25436;DHT22;13363;52.772;-3.890;2022-09-09T11:18:31;22.10;1.00
25436;DHT22;13363;52.772;-3.890;2022-09-09T11:21:03;22.00;1.00
25436;DHT22;13363;52.772;-3.890;2022-09-09T11:24:00;22.00;1.00
25436;DHT22;13363;52.772;-3.890;2022-09-09T11:26:40;22.40;1.00
25436;DHT22;13363;52.772;-3.890;2022-09-09T11:29:21;22.50;1.00
25436;DHT22;13363;52.772;-3.890;2022-09-09T11:32:06;22.70;1.00
25436;DHT22;13363;52.772;-3.890;2022-09-09T11:34:46;22.90;99.90
25436;DHT22;13363;52.772;-3.890;2022-09-09T11:40:24;22.60;1.00
25436;DHT22;13363;52.772;-3.890;2022-09-09T11:43:20;22.20;1.00
25436;DHT22;13363;52.772;-3.890;2022-09-09T11:45:54;22.00;99.90
25436;DHT22;13363;52.772;-3.890;2022-09-09T11:48:42;22.50;99.90
25436;DHT22;13363;52.772;-3.890;2022-09-09T11:53:57;22.50;1.00
25436;DHT22;13363;52.772;-3.890;2022-09-09T12:07:00;22.80;86.00
25436;DHT22;13363;52.772;-3.890;2022-09-09T12:15:00;22.70;27.20
25436;DHT22;13363;52.772;-3.890;2022-09-09T12:17:27;22.70;1.00
25436;DHT22;13363;52.772;-3.890;2022-09-09T12:20:31;22.90;63.70
25436;DHT22;13363;52.772;-3.890;2022-09-09T12:31:14;23.60;99.90
25436;DHT22;13363;52.772;-3.890;2022-09-09T12:33:44;23.50;1.00
25436;DHT22;13363;52.772;-3.890;2022-09-09T12:36:16;23.60;99.90
25436;DHT22;13363;52.772;-3.890;2022-09-09T12:38:45;23.20;99.90
25436;DHT22;13363;52.772;-3.890;2022-09-09T12:41:27;23.00;1.00
25436;DHT22;13363;52.772;-3.890;2022-09-09T12:44:13;22.90;99.90
25436;DHT22;13363;52.772;-3.890;2022-09-09T12:46:45;22.60;99.90
25436;DHT22;13363;52.772;-3.890;2022-09-09T12:49:33;22.70;1.00
25436;DHT22;13363;52.772;-3.890;2022-09-09T12:52:25;22.70;99.90
25436;DHT22;13363;52.772;-3.890;2022-09-09T12:54:52;22.80;1.00
25436;DHT22;13363;52.772;-3.890;2022-09-09T12:57:21;23.00;99.90
25436;DHT22;13363;52.772;-3.890;2022-09-09T12:59:48;23.10;99.90
25436;DHT22;13363;52.772;-3.890;2022-09-09T13:02:21;23.10;1.00
25436;DHT22;13363;52.772;-3.890;2022-09-09T13:04:48;23.30;99.90
25436;DHT22;13363;52.772;-3.890;2022-09-09T13:07:18;23.30;1.00
25436;DHT22;13363;52.772;-3.890;2022-09-09T13:09:46;23.50;44.20
25436;DHT22;13363;52.772;-3.890;2022-09-09T13:12:21;23.80;1.00
25436;DHT22;13363;52.772;-3.890;2022-09-09T13:14:55;23.50;1.00
25436;DHT22;13363;52.772;-3.890;2022-09-09T13:17:24;23.00;1.00
25436;DHT22;13363;52.772;-3.890;2022-09-09T13:19:51;23.10;99.90
25436;DHT22;13363;52.772;-3.890;2022-09-09T13:22:35;23.10;1.00
25436;DHT22;13363;52.772;-3.890;2022-09-09T13:25:28;23.10;1.00
25436;DHT22;13363;52.772;-3.890;2022-09-09T13:27:59;23.30;1.00
25436;DHT22;13363;52.772;-3.890;2022-09-09T13:30:31;23.70;88.60
25436;DHT22;13363;52.772;-3.890;2022-09-09T13:38:25;23.60;1.00
25436;DHT22;13363;52.772;-3.890;2022-09-09T13:41:05;23.40;1.00
25436;DHT22;13363;52.772;-3.890;2022-09-09T13:43:42;23.40;1.00
25436;DHT22;13363;52.772;-3.890;2022-09-09T13:46:38;23.30;1.00
25436;DHT22;13363;52.772;-3.890;2022-09-09T13:54:12;22.50;99.90
25436;DHT22;13363;52.772;-3.890;2022-09-09T13:56:39;22.40;99.90
25436;DHT22;13363;52.772;-3.890;2022-09-09T13:59:10;22.20;1.00
25436;DHT22;13363;52.772;-3.890;2022-09-09T14:01:37;22.20;1.00
25436;DHT22;13363;52.772;-3.890;2022-09-09T14:04:03;22.30;1.00
25436;DHT22;13363;52.772;-3.890;2022-09-09T14:06:29;22.30;1.00
25436;DHT22;13363;52.772;-3.890;2022-09-09T14:08:56;22.20;1.00
25436;DHT22;13363;52.772;-3.890;2022-09-09T14:11:22;22.00;1.00
25436;DHT22;13363;52.772;-3.890;2022-09-09T14:13:50;21.90;99.90
25436;DHT22;13363;52.772;-3.890;2022-09-09T14:16:17;21.80;1.00
25436;DHT22;13363;52.772;-3.890;2022-09-09T14:18:45;21.70;1.00
25436;DHT22;13363;52.772;-3.890;2022-09-09T14:21:12;21.70;55.40
25436;DHT22;13363;52.772;-3.890;2022-09-09T14:23:38;21.90;1.00
25436;DHT22;13363;52.772;-3.890;2022-09-09T14:26:05;22.00;1.00
25436;DHT22;13363;52.772;-3.890;2022-09-09T14:28:31;22.00;1.00
25436;DHT22;13363;52.772;-3.890;2022-09-09T14:31:02;22.00;1.00
25436;DHT22;13363;52.772;-3.890;2022-09-09T14:33:29;21.90;1.00
25436;DHT22;13363;52.772;-3.890;2022-09-09T14:35:59;22.00;1.00
25436;DHT22;13363;52.772;-3.890;2022-09-09T14:38:30;22.20;99.90
25436;DHT22;13363;52.772;-3.890;2022-09-09T14:40:56;22.30;99.90
25436;DHT22;13363;52.772;-3.890;2022-09-09T14:43:24;22.30;1.00
25436;DHT22;13363;52.772;-3.890;2022-09-09T14:45:50;22.50;1.00
25436;DHT22;13363;52.772;-3.890;2022-09-09T14:48:17;22.70;99.90
25436;DHT22;13363;52.772;-3.890;2022-09-09T14:50:43;22.60;1.00
25436;DHT22;13363;52.772;-3.890;2022-09-09T14:53:09;22.40;99.90
25436;DHT22;13363;52.772;-3.890;2022-09-09T14:55:36;22.30;99.90
25436;DHT22;13363;52.772;-3.890;2022-09-09T14:58:03;22.20;1.00
25436;DHT22;13363;52.772;-3.890;2022-09-09T15:00:29;22.20;19.90
25436;DHT22;13363;52.772;-3.890;2022-09-09T15:02:55;22.40;1.00
25436;DHT22;13363;52.772;-3.890;2022-09-09T15:05:22;22.50;1.00
25436;DHT22;13363;52.772;-3.890;2022-09-09T15:07:48;22.50;99.90
25436;DHT22;13363;52.772;-3.890;2022-09-09T15:10:14;22.60;1.00
25436;DHT22;13363;52.772;-3.890;2022-09-09T15:12:40;22.70;1.00
25436;DHT22;13363;52.772;-3.890;2022-09-09T15:15:08;22.50;99.90
25436;DHT22;13363;52.772;-3.890;2022-09-09T15:17:34;22.20;1.00
25436;DHT22;13363;52.772;-3.890;2022-09-09T15:20:01;22.30;1.00
25436;DHT22;13363;52.772;-3.890;2022-09-09T15:22:27;22.40;1.00
25436;DHT22;13363;52.772;-3.890;2022-09-09T15:24:53;22.40;99.90
25436;DHT22;13363;52.772;-3.890;2022-09-09T15:27:19;22.10;99.90
25436;DHT22;13363;52.772;-3.890;2022-09-09T15:29:44;21.90;99.90
25436;DHT22;13363;52.772;-3.890;2022-09-09T15:32:10;21.70;1.00
25436;DHT22;13363;52.772;-3.890;2022-09-09T15:34:36;21.90;1.00
25436;DHT22;13363;52.772;-3.890;2022-09-09T15:37:02;21.80;99.90
25436;DHT22;13363;52.772;-3.890;2022-09-09T15:39:28;21.70;99.90
25436;DHT22;13363;52.772;-3.890;2022-09-09T15:41:54;21.70;1.00
25436;DHT22;13363;52.772;-3.890;2022-09-09T15:44:19;21.70;1.00
25436;DHT22;13363;52.772;-3.890;2022-09-09T15:46:50;21.80;99.90
25436;DHT22;13363;52.772;-3.890;2022-09-09T15:49:18;21.80;1.00
25436;DHT22;13363;52.772;-3.890;2022-09-09T15:51:47;21.80;99.90
25436;DHT22;13363;52.772;-3.890;2022-09-09T15:54:15;21.50;1.00
25436;DHT22;13363;52.772;-3.890;2022-09-09T15:56:47;21.40;1.00
25436;DHT22;13363;52.772;-3.890;2022-09-09T15:59:15;21.30;99.90
25436;DHT22;13363;52.772;-3.890;2022-09-09T16:01:42;21.10;1.00
25436;DHT22;13363;52.772;-3.890;2022-09-09T16:04:08;21.30;1.00
25436;DHT22;13363;52.772;-3.890;2022-09-09T16:06:34;21.30;1.00
25436;DHT22;13363;52.772;-3.890;2022-09-09T16:09:02;21.40;1.00
25436;DHT22;13363;52.772;-3.890;2022-09-09T16:11:30;21.40;1.00
25436;DHT22;13363;52.772;-3.890;2022-09-09T16:13:59;21.30;1.00
25436;DHT22;13363;52.772;-3.890;2022-09-09T16:16:27;21.30;1.00
25436;DHT22;13363;52.772;-3.890;2022-09-09T16:18:57;21.00;1.00
25436;DHT22;13363;52.772;-3.890;2022-09-09T16:21:32;21.00;99.90
25436;DHT22;13363;52.772;-3.890;2022-09-09T16:24:01;20.90;1.00
25436;DHT22;13363;52.772;-3.890;2022-09-09T16:26:33;20.80;99.90
25436;DHT22;13363;52.772;-3.890;2022-09-09T16:29:02;20.70;99.90
25436;DHT22;13363;52.772;-3.890;2022-09-09T16:31:33;20.40;99.90
25436;DHT22;13363;52.772;-3.890;2022-09-09T16:34:03;20.30;1.00
25436;DHT22;13363;52.772;-3.890;2022-09-09T16:36:37;20.30;1.00
25436;DHT22;13363;52.772;-3.890;2022-09-09T16:39:13;20.20;99.90
25436;DHT22;13363;52.772;-3.890;2022-09-09T16:41:41;20.20;1.00
25436;DHT22;13363;52.772;-3.890;2022-09-09T16:44:08;20.20;1.00
25436;DHT22;13363;52.772;-3.890;2022-09-09T16:46:37;20.30;1.00
25436;DHT22;13363;52.772;-3.890;2022-09-09T16:49:06;20.20;99.90
25436;DHT22;13363;52.772;-3.890;2022-09-09T16:51:47;20.20;1.00
25436;DHT22;13363;52.772;-3.890;2022-09-09T16:54:13;20.20;99.90
25436;DHT22;13363;52.772;-3.890;2022-09-09T16:56:42;20.30;1.00
25436;DHT22;13363;52.772;-3.890;2022-09-09T16:59:11;20.40;1.00
25436;DHT22;13363;52.772;-3.890;2022-09-09T17:01:39;20.50;99.90
25436;DHT22;13363;52.772;-3.890;2022-09-09T17:04:11;20.60;99.90
25436;DHT22;13363;52.772;-3.890;2022-09-09T17:06:38;20.70;17.80
25436;DHT22;13363;52.772;-3.890;2022-09-09T17:09:09;20.80;1.00
25436;DHT22;13363;52.772;-3.890;2022-09-09T17:11:35;20.80;1.00
25436;DHT22;13363;52.772;-3.890;2022-09-09T17:14:02;20.80;1.00
25436;DHT22;13363;52.772;-3.890;2022-09-09T17:16:30;20.90;1.00
25436;DHT22;13363;52.772;-3.890;2022-09-09T17:18:58;20.90;99.90
25436;DHT22;13363;52.772;-3.890;2022-09-09T17:21:27;21.00;1.00
25436;DHT22;13363;52.772;-3.890;2022-09-09T17:23:55;21.00;1.00
25436;DHT22;13363;52.772;-3.890;2022-09-09T17:26:23;21.00;1.00
25436;DHT22;13363;52.772;-3.890;2022-09-09T17:28:49;20.90;1.00
25436;DHT22;13363;52.772;-3.890;2022-09-09T17:31:17;20.90;1.00
25436;DHT22;13363;52.772;-3.890;2022-09-09T17:33:48;20.80;1.00
25436;DHT22;13363;52.772;-3.890;2022-09-09T17:36:25;20.70;6.80
25436;DHT22;13363;52.772;-3.890;2022-09-09T17:38:52;20.70;99.90
25436;DHT22;13363;52.772;-3.890;2022-09-09T17:41:24;20.70;50.30
25436;DHT22;13363;52.772;-3.890;2022-09-09T17:43:51;20.80;1.00
25436;DHT22;13363;52.772;-3.890;2022-09-09T17:46:24;20.70;1.00
25436;DHT22;13363;52.772;-3.890;2022-09-09T17:48:54;20.60;7.80
25436;DHT22;13363;52.772;-3.890;2022-09-09T17:51:23;20.40;27.40
25436;DHT22;13363;52.772;-3.890;2022-09-09T17:53:52;20.30;99.90